sensor_id;sensor_type;location;lat;lon;timestamp;pressure;altitude;pressure_sealevel;temperature;humidity
9139;BME280;4604;48.616;9.548;2023-09-12T00:01:58;96599.38;;;19.18;91.22
9139;BME280;4604;48.616;9.548;2023-09-12T00:04:24;96589.31;;;19.20;90.90
9139;BME280;4604;48.616;9.548;2023-09-12T00:06:51;96585.81;;;19.20;90.74
9139;BME280;4604;48.616;9.548;2023-09-12T00:09:19;96587.84;;;19.18;90.75
9139;BME280;4604;48.616;9.548;2023-09-12T00:11:46;96579.22;;;19.16;90.91
9139;BME280;4604;48.616;9.548;2023-09-12T00:14:14;96551.81;;;19.00;90.97
9139;BME280;4604;48.616;9.548;2023-09-12T00:16:41;96570.56;;;19.07;91.15
9139;BME280;4604;48.616;9.548;2023-09-12T00:19:08;96563.53;;;19.06;91.39
9139;BME280;4604;48.616;9.548;2023-09-12T00:21:34;96566.22;;;19.06;91.42
9139;BME280;4604;48.616;9.548;2023-09-12T00:24:01;96565.81;;;19.02;91.50
9139;BME280;4604;48.616;9.548;2023-09-12T00:26:29;96560.84;;;18.99;91.70
9139;BME280;4604;48.616;9.548;2023-09-12T00:28:56;96565.78;;;18.96;91.97
9139;BME280;4604;48.616;9.548;2023-09-12T00:31:23;96568.41;;;18.89;92.63
9139;BME280;4604;48.616;9.548;2023-09-12T00:33:48;96565.13;;;18.87;92.94
9139;BME280;4604;48.616;9.548;2023-09-12T00:36:15;96570.06;;;18.84;93.21
9139;BME280;4604;48.616;9.548;2023-09-12T00:38:41;96563.69;;;18.85;93.11
9139;BME280;4604;48.616;9.548;2023-09-12T00:41:08;96563.44;;;18.79;93.13
9139;BME280;4604;48.616;9.548;2023-09-12T00:43:36;96559.78;;;18.80;92.84
9139;BME280;4604;48.616;9.548;2023-09-12T00:46:02;96556.25;;;18.80;92.86
9139;BME280;4604;48.616;9.548;2023-09-12T00:48:29;96546.63;;;18.86;92.37
9139;BME280;4604;48.616;9.548;2023-09-12T00:50:56;96552.19;;;18.91;91.83
9139;BME280;4604;48.616;9.548;2023-09-12T00:53:23;96548.69;;;18.90;91.69
9139;BME280;4604;48.616;9.548;2023-09-12T00:55:54;96563.28;;;18.88;91.86
9139;BME280;4604;48.616;9.548;2023-09-12T00:58:22;96565.53;;;18.84;92.03
9139;BME280;4604;48.616;9.548;2023-09-12T01:00:50;96557.91;;;18.81;92.18
9139;BME280;4604;48.616;9.548;2023-09-12T01:03:17;96551.31;;;18.77;92.41
9139;BME280;4604;48.616;9.548;2023-09-12T01:05:44;96557.84;;;18.74;92.69
9139;BME280;4604;48.616;9.548;2023-09-12T01:08:12;96559.25;;;18.70;92.97
9139;BME280;4604;48.616;9.548;2023-09-12T01:10:39;96560.31;;;18.69;92.87
9139;BME280;4604;48.616;9.548;2023-09-12T01:13:11;96556.97;;;18.60;93.43
9139;BME280;4604;48.616;9.548;2023-09-12T01:15:38;96547.09;;;18.54;94.00
9139;BME280;4604;48.616;9.548;2023-09-12T01:18:06;96553.84;;;18.50;94.45
9139;BME280;4604;48.616;9.548;2023-09-12T01:20:34;96556.09;;;18.47;94.72
9139;BME280;4604;48.616;9.548;2023-09-12T01:23:21;96553.59;;;18.45;95.22
9139;BME280;4604;48.616;9.548;2023-09-12T01:26:17;96558.94;;;18.45;95.24
9139;BME280;4604;48.616;9.548;2023-09-12T01:28:51;96566.56;;;18.42;95.40
9139;BME280;4604;48.616;9.548;2023-09-12T01:31:19;96566.56;;;18.42;95.74
9139;BME280;4604;48.616;9.548;2023-09-12T01:33:46;96568.75;;;18.31;96.35
9139;BME280;4604;48.616;9.548;2023-09-12T01:36:13;96571.63;;;18.30;96.57
9139;BME280;4604;48.616;9.548;2023-09-12T01:38:39;96574.06;;;18.25;96.79
9139;BME280;4604;48.616;9.548;2023-09-12T01:41:07;96569.06;;;18.15;97.39
9139;BME280;4604;48.616;9.548;2023-09-12T01:43:36;96565.13;;;18.11;97.88
9139;BME280;4604;48.616;9.548;2023-09-12T01:46:06;96559.16;;;18.09;98.07
9139;BME280;4604;48.616;9.548;2023-09-12T01:48:35;96562.03;;;18.07;98.19
9139;BME280;4604;48.616;9.548;2023-09-12T01:51:03;96561.19;;;18.07;98.15
9139;BME280;4604;48.616;9.548;2023-09-12T01:53:31;96569.81;;;18.02;98.39
9139;BME280;4604;48.616;9.548;2023-09-12T01:55:59;96575.16;;;18.02;98.49
9139;BME280;4604;48.616;9.548;2023-09-12T01:58:26;96565.47;;;18.01;98.52
9139;BME280;4604;48.616;9.548;2023-09-12T02:00:53;96572.81;;;17.92;99.03
9139;BME280;4604;48.616;9.548;2023-09-12T02:03:20;96568.06;;;17.88;99.18
9139;BME280;4604;48.616;9.548;2023-09-12T02:05:47;96577.72;;;17.89;99.23
9139;BME280;4604;48.616;9.548;2023-09-12T02:08:14;96575.63;;;17.84;99.59
9139;BME280;4604;48.616;9.548;2023-09-12T02:10:41;96574.97;;;17.82;99.73
9139;BME280;4604;48.616;9.548;2023-09-12T02:13:07;96572.84;;;17.77;100.00
9139;BME280;4604;48.616;9.548;2023-09-12T02:15:34;96573.63;;;17.71;100.00
9139;BME280;4604;48.616;9.548;2023-09-12T02:18:01;96568.06;;;17.66;100.00
9139;BME280;4604;48.616;9.548;2023-09-12T02:20:29;96567.34;;;17.58;100.00
9139;BME280;4604;48.616;9.548;2023-09-12T02:22:56;96564.44;;;17.52;100.00
9139;BME280;4604;48.616;9.548;2023-09-12T02:25:22;96568.56;;;17.55;100.00
9139;BME280;4604;48.616;9.548;2023-09-12T02:27:49;96557.91;;;17.55;100.00
9139;BME280;4604;48.616;9.548;2023-09-12T02:30:15;96562.47;;;17.61;100.00
9139;BME280;4604;48.616;9.548;2023-09-12T02:32:42;96561.66;;;17.61;100.00
9139;BME280;4604;48.616;9.548;2023-09-12T02:35:09;96562.41;;;17.54;100.00
9139;BME280;4604;48.616;9.548;2023-09-12T02:37:37;96554.59;;;17.53;100.00
9139;BME280;4604;48.616;9.548;2023-09-12T02:40:04;96556.00;;;17.49;100.00
9139;BME280;4604;48.616;9.548;2023-09-12T02:42:32;96546.16;;;17.49;100.00
9139;BME280;4604;48.616;9.548;2023-09-12T02:44:58;96546.16;;;17.49;100.00
9139;BME280;4604;48.616;9.548;2023-09-12T02:47:25;96549.22;;;17.46;100.00
9139;BME280;4604;48.616;9.548;2023-09-12T02:49:51;96554.09;;;17.43;100.00
9139;BME280;4604;48.616;9.548;2023-09-12T02:52:18;96553.44;;;17.41;100.00
9139;BME280;4604;48.616;9.548;2023-09-12T02:54:46;96549.97;;;17.40;100.00
9139;BME280;4604;48.616;9.548;2023-09-12T02:57:13;96549.97;;;17.40;100.00
9139;BME280;4604;48.616;9.548;2023-09-12T02:59:39;96547.69;;;17.37;100.00
9139;BME280;4604;48.616;9.548;2023-09-12T03:02:06;96550.09;;;17.32;100.00
9139;BME280;4604;48.616;9.548;2023-09-12T03:04:35;96540.00;;;17.27;100.00
9139;BME280;4604;48.616;9.548;2023-09-12T03:07:02;96539.19;;;17.27;100.00
9139;BME280;4604;48.616;9.548;2023-09-12T03:09:29;96533.84;;;17.27;100.00
9139;BME280;4604;48.616;9.548;2023-09-12T03:11:57;96537.50;;;17.26;100.00
9139;BME280;4604;48.616;9.548;2023-09-12T03:14:24;96530.53;;;17.25;100.00
9139;BME280;4604;48.616;9.548;2023-09-12T03:16:50;96527.88;;;17.25;100.00
9139;BME280;4604;48.616;9.548;2023-09-12T03:19:17;96542.03;;;17.25;100.00
9139;BME280;4604;48.616;9.548;2023-09-12T03:21:43;96527.25;;;17.23;100.00
9139;BME280;4604;48.616;9.548;2023-09-12T03:24:10;96533.31;;;17.17;100.00
9139;BME280;4604;48.616;9.548;2023-09-12T03:26:36;96524.88;;;17.13;100.00
9139;BME280;4604;48.616;9.548;2023-09-12T03:29:04;96527.31;;;17.08;100.00
9139;BME280;4604;48.616;9.548;2023-09-12T03:31:31;96506.47;;;16.97;100.00
9139;BME280;4604;48.616;9.548;2023-09-12T03:33:58;96524.81;;;17.06;100.00
9139;BME280;4604;48.616;9.548;2023-09-12T03:36:24;96521.50;;;17.04;100.00
9139;BME280;4604;48.616;9.548;2023-09-12T03:38:51;96520.69;;;17.04;100.00
9139;BME280;4604;48.616;9.548;2023-09-12T03:41:18;96524.78;;;17.00;100.00
9139;BME280;4604;48.616;9.548;2023-09-12T03:43:44;96528.81;;;16.96;100.00
9139;BME280;4604;48.616;9.548;2023-09-12T03:46:13;96517.69;;;16.92;100.00
9139;BME280;4604;48.616;9.548;2023-09-12T03:48:40;96529.00;;;16.94;100.00
9139;BME280;4604;48.616;9.548;2023-09-12T03:51:06;96517.97;;;16.97;100.00
9139;BME280;4604;48.616;9.548;2023-09-12T03:53:33;96519.75;;;16.90;100.00
9139;BME280;4604;48.616;9.548;2023-09-12T03:55:59;96522.47;;;16.97;100.00
9139;BME280;4604;48.616;9.548;2023-09-12T03:58:26;96525.06;;;16.90;100.00
9139;BME280;4604;48.616;9.548;2023-09-12T04:00:52;96523.91;;;16.99;100.00
9139;BME280;4604;48.616;9.548;2023-09-12T04:03:21;96529.16;;;17.07;100.00
9139;BME280;4604;48.616;9.548;2023-09-12T04:05:47;96540.25;;;17.11;100.00
9139;BME280;4604;48.616;9.548;2023-09-12T04:08:13;96539.44;;;17.10;100.00
9139;BME280;4604;48.616;9.548;2023-09-12T04:10:40;96541.28;;;17.10;100.00
9139;BME280;4604;48.616;9.548;2023-09-12T04:13:06;96544.59;;;17.12;100.00
9139;BME280;4604;48.616;9.548;2023-09-12T04:15:33;96543.94;;;17.10;100.00
9139;BME280;4604;48.616;9.548;2023-09-12T04:17:59;96544.13;;;17.08;100.00
9139;BME280;4604;48.616;9.548;2023-09-12T04:20:27;96540.56;;;17.01;100.00
9139;BME280;4604;48.616;9.548;2023-09-12T04:22:54;96543.44;;;17.00;100.00
9139;BME280;4604;48.616;9.548;2023-09-12T04:25:21;96540.31;;;16.96;100.00
9139;BME280;4604;48.616;9.548;2023-09-12T04:27:47;96547.75;;;17.01;100.00
9139;BME280;4604;48.616;9.548;2023-09-12T04:30:14;96542.59;;;16.99;100.00
9139;BME280;4604;48.616;9.548;2023-09-12T04:32:40;96550.78;;;16.98;100.00
9139;BME280;4604;48.616;9.548;2023-09-12T04:35:07;96541.50;;;16.94;100.00
9139;BME280;4604;48.616;9.548;2023-09-12T04:37:35;96536.56;;;16.90;100.00
9139;BME280;4604;48.616;9.548;2023-09-12T04:40:03;96539.22;;;16.90;100.00
9139;BME280;4604;48.616;9.548;2023-09-12T04:42:31;96540.88;;;16.92;100.00
9139;BME280;4604;48.616;9.548;2023-09-12T04:44:57;96538.19;;;16.92;100.00
9139;BME280;4604;48.616;9.548;2023-09-12T04:47:24;96536.94;;;16.87;100.00
9139;BME280;4604;48.616;9.548;2023-09-12T04:49:52;96531.53;;;16.81;100.00
9139;BME280;4604;48.616;9.548;2023-09-12T04:52:18;96530.22;;;16.77;100.00
9139;BME280;4604;48.616;9.548;2023-09-12T04:54:46;96531.41;;;16.74;100.00
9139;BME280;4604;48.616;9.548;2023-09-12T04:57:13;96528.31;;;16.71;100.00
9139;BME280;4604;48.616;9.548;2023-09-12T04:59:39;96532.63;;;16.72;100.00
9139;BME280;4604;48.616;9.548;2023-09-12T05:02:06;96526.84;;;16.68;100.00
9139;BME280;4604;48.616;9.548;2023-09-12T05:04:33;96528.22;;;16.64;100.00
9139;BME280;4604;48.616;9.548;2023-09-12T05:06:59;96531.16;;;16.69;100.00
9139;BME280;4604;48.616;9.548;2023-09-12T05:09:26;96525.91;;;16.90;100.00
9139;BME280;4604;48.616;9.548;2023-09-12T05:11:54;96525.38;;;16.80;100.00
9139;BME280;4604;48.616;9.548;2023-09-12T05:14:21;96523.97;;;16.84;100.00
9139;BME280;4604;48.616;9.548;2023-09-12T05:16:47;96517.34;;;16.95;100.00
9139;BME280;4604;48.616;9.548;2023-09-12T05:19:14;96514.03;;;16.93;100.00
9139;BME280;4604;48.616;9.548;2023-09-12T05:21:40;96526.59;;;16.99;100.00
9139;BME280;4604;48.616;9.548;2023-09-12T05:24:07;96523.00;;;17.07;100.00
9139;BME280;4604;48.616;9.548;2023-09-12T05:26:34;96524.63;;;17.08;100.00
9139;BME280;4604;48.616;9.548;2023-09-12T05:29:02;96522.41;;;17.11;100.00
9139;BME280;4604;48.616;9.548;2023-09-12T05:31:28;96525.13;;;17.18;100.00
9139;BME280;4604;48.616;9.548;2023-09-12T05:33:57;96528.88;;;17.24;100.00
9139;BME280;4604;48.616;9.548;2023-09-12T05:36:23;96530.97;;;17.28;100.00
9139;BME280;4604;48.616;9.548;2023-09-12T05:38:50;96535.16;;;17.38;100.00
9139;BME280;4604;48.616;9.548;2023-09-12T05:41:16;96536.22;;;17.43;100.00
9139;BME280;4604;48.616;9.548;2023-09-12T05:43:43;96536.94;;;17.52;100.00
9139;BME280;4604;48.616;9.548;2023-09-12T05:46:11;96536.44;;;17.63;100.00
9139;BME280;4604;48.616;9.548;2023-09-12T05:48:37;96539.38;;;17.75;100.00
9139;BME280;4604;48.616;9.548;2023-09-12T05:51:04;96523.56;;;17.73;100.00
9139;BME280;4604;48.616;9.548;2023-09-12T05:53:30;96529.81;;;17.81;100.00
9139;BME280;4604;48.616;9.548;2023-09-12T05:55:57;96543.09;;;18.02;100.00
9139;BME280;4604;48.616;9.548;2023-09-12T05:58:24;96543.34;;;18.14;100.00
9139;BME280;4604;48.616;9.548;2023-09-12T06:00:51;96548.78;;;18.27;100.00
9139;BME280;4604;48.616;9.548;2023-09-12T06:03:18;96549.88;;;18.39;100.00
9139;BME280;4604;48.616;9.548;2023-09-12T06:05:45;96549.16;;;18.59;100.00
9139;BME280;4604;48.616;9.548;2023-09-12T06:08:12;96554.72;;;18.64;100.00
9139;BME280;4604;48.616;9.548;2023-09-12T06:10:38;96563.19;;;18.74;100.00
9139;BME280;4604;48.616;9.548;2023-09-12T06:13:05;96561.22;;;18.83;100.00
9139;BME280;4604;48.616;9.548;2023-09-12T06:15:31;96554.66;;;18.86;100.00
9139;BME280;4604;48.616;9.548;2023-09-12T06:17:58;96554.66;;;18.86;100.00
9139;BME280;4604;48.616;9.548;2023-09-12T06:20:26;96567.66;;;19.02;100.00
9139;BME280;4604;48.616;9.548;2023-09-12T06:22:52;96559.81;;;18.94;100.00
9139;BME280;4604;48.616;9.548;2023-09-12T06:25:19;96558.59;;;19.03;100.00
9139;BME280;4604;48.616;9.548;2023-09-12T06:27:46;96560.28;;;19.11;100.00
9139;BME280;4604;48.616;9.548;2023-09-12T06:30:13;96558.44;;;19.18;100.00
9139;BME280;4604;48.616;9.548;2023-09-12T06:32:39;96560.91;;;19.26;100.00
9139;BME280;4604;48.616;9.548;2023-09-12T06:35:07;96558.25;;;19.33;100.00
9139;BME280;4604;48.616;9.548;2023-09-12T06:37:37;96561.97;;;19.38;99.92
9139;BME280;4604;48.616;9.548;2023-09-12T06:40:04;96571.25;;;19.42;99.46
9139;BME280;4604;48.616;9.548;2023-09-12T06:42:31;96571.66;;;19.46;99.47
9139;BME280;4604;48.616;9.548;2023-09-12T06:44:58;96568.38;;;19.57;99.09
9139;BME280;4604;48.616;9.548;2023-09-12T06:47:24;96564.91;;;19.77;98.39
9139;BME280;4604;48.616;9.548;2023-09-12T06:49:51;96556.84;;;20.10;96.50
9139;BME280;4604;48.616;9.548;2023-09-12T06:52:17;96560.13;;;20.32;95.17
9139;BME280;4604;48.616;9.548;2023-09-12T06:54:45;96564.44;;;20.33;94.84
9139;BME280;4604;48.616;9.548;2023-09-12T06:57:12;96566.28;;;20.46;94.28
9139;BME280;4604;48.616;9.548;2023-09-12T06:59:39;96559.22;;;20.65;94.20
9139;BME280;4604;48.616;9.548;2023-09-12T07:02:05;96561.34;;;20.94;91.38
9139;BME280;4604;48.616;9.548;2023-09-12T07:04:32;96559.44;;;21.08;88.73
9139;BME280;4604;48.616;9.548;2023-09-12T07:06:59;96563.09;;;21.21;90.25
9139;BME280;4604;48.616;9.548;2023-09-12T07:09:25;96565.94;;;21.26;90.59
9139;BME280;4604;48.616;9.548;2023-09-12T07:11:53;96565.53;;;21.29;90.24
9139;BME280;4604;48.616;9.548;2023-09-12T07:14:20;96571.88;;;21.34;89.00
9139;BME280;4604;48.616;9.548;2023-09-12T07:16:47;96576.69;;;21.26;89.17
9139;BME280;4604;48.616;9.548;2023-09-12T07:19:13;96583.09;;;21.25;88.18
9139;BME280;4604;48.616;9.548;2023-09-12T07:21:40;96589.28;;;21.25;87.93
9139;BME280;4604;48.616;9.548;2023-09-12T07:24:07;96590.16;;;21.19;88.63
9139;BME280;4604;48.616;9.548;2023-09-12T07:26:33;96594.13;;;21.03;89.53
9139;BME280;4604;48.616;9.548;2023-09-12T07:29:01;96605.53;;;20.92;89.04
9139;BME280;4604;48.616;9.548;2023-09-12T07:31:30;96599.97;;;20.87;89.66
9139;BME280;4604;48.616;9.548;2023-09-12T07:33:57;96599.38;;;20.85;90.01
9139;BME280;4604;48.616;9.548;2023-09-12T07:36:23;96601.66;;;20.81;91.83
9139;BME280;4604;48.616;9.548;2023-09-12T07:38:50;96609.06;;;20.86;90.21
9139;BME280;4604;48.616;9.548;2023-09-12T07:41:17;96605.75;;;20.97;89.52
9139;BME280;4604;48.616;9.548;2023-09-12T07:43:44;96609.00;;;21.06;88.48
9139;BME280;4604;48.616;9.548;2023-09-12T07:46:12;96606.75;;;21.03;87.79
9139;BME280;4604;48.616;9.548;2023-09-12T07:48:38;96609.41;;;21.09;87.48
9139;BME280;4604;48.616;9.548;2023-09-12T07:51:12;96614.50;;;21.24;87.78
9139;BME280;4604;48.616;9.548;2023-09-12T07:53:39;96626.56;;;21.47;85.61
9139;BME280;4604;48.616;9.548;2023-09-12T07:56:07;96623.91;;;21.40;85.75
9139;BME280;4604;48.616;9.548;2023-09-12T07:58:34;96624.50;;;21.49;85.22
9139;BME280;4604;48.616;9.548;2023-09-12T08:01:04;96637.66;;;21.57;86.50
9139;BME280;4604;48.616;9.548;2023-09-12T08:03:33;96633.66;;;21.73;85.61
9139;BME280;4604;48.616;9.548;2023-09-12T08:05:59;96637.38;;;21.97;84.61
9139;BME280;4604;48.616;9.548;2023-09-12T08:08:26;96636.63;;;22.15;81.05
9139;BME280;4604;48.616;9.548;2023-09-12T08:10:52;96634.66;;;22.04;81.11
9139;BME280;4604;48.616;9.548;2023-09-12T08:13:19;96639.25;;;21.96;81.22
9139;BME280;4604;48.616;9.548;2023-09-12T08:15:45;96637.91;;;22.12;81.89
9139;BME280;4604;48.616;9.548;2023-09-12T08:18:12;96637.47;;;22.40;79.45
9139;BME280;4604;48.616;9.548;2023-09-12T08:20:40;96642.22;;;22.63;79.62
9139;BME280;4604;48.616;9.548;2023-09-12T08:23:07;96633.53;;;22.80;78.18
9139;BME280;4604;48.616;9.548;2023-09-12T08:25:33;96636.09;;;22.93;77.38
9139;BME280;4604;48.616;9.548;2023-09-12T08:28:00;96640.66;;;23.11;76.61
9139;BME280;4604;48.616;9.548;2023-09-12T08:30:27;96643.69;;;23.03;74.78
9139;BME280;4604;48.616;9.548;2023-09-12T08:32:54;96636.81;;;23.07;75.57
9139;BME280;4604;48.616;9.548;2023-09-12T08:35:21;96634.94;;;23.07;74.97
9139;BME280;4604;48.616;9.548;2023-09-12T08:37:49;96638.66;;;23.06;75.84
9139;BME280;4604;48.616;9.548;2023-09-12T08:40:16;96634.06;;;23.25;73.20
9139;BME280;4604;48.616;9.548;2023-09-12T08:42:44;96641.88;;;23.34;73.43
9139;BME280;4604;48.616;9.548;2023-09-12T08:45:13;96636.16;;;23.42;72.86
9139;BME280;4604;48.616;9.548;2023-09-12T08:47:41;96643.81;;;23.57;71.78
9139;BME280;4604;48.616;9.548;2023-09-12T08:50:10;96638.22;;;23.70;70.44
9139;BME280;4604;48.616;9.548;2023-09-12T08:52:38;96647.53;;;23.74;70.39
9139;BME280;4604;48.616;9.548;2023-09-12T08:55:07;96639.72;;;23.84;70.87
9139;BME280;4604;48.616;9.548;2023-09-12T08:57:35;96652.06;;;24.04;71.15
9139;BME280;4604;48.616;9.548;2023-09-12T09:00:03;96650.06;;;24.11;69.34
9139;BME280;4604;48.616;9.548;2023-09-12T09:02:31;96638.75;;;24.32;69.23
9139;BME280;4604;48.616;9.548;2023-09-12T09:04:59;96634.38;;;24.43;70.25
9139;BME280;4604;48.616;9.548;2023-09-12T09:07:27;96637.72;;;24.57;69.03
9139;BME280;4604;48.616;9.548;2023-09-12T09:09:55;96636.09;;;24.68;68.90
9139;BME280;4604;48.616;9.548;2023-09-12T09:12:23;96635.09;;;24.86;66.55
9139;BME280;4604;48.616;9.548;2023-09-12T09:14:51;96630.41;;;24.81;66.34
9139;BME280;4604;48.616;9.548;2023-09-12T09:17:19;96626.88;;;24.92;67.21
9139;BME280;4604;48.616;9.548;2023-09-12T09:19:45;96624.81;;;25.11;66.80
9139;BME280;4604;48.616;9.548;2023-09-12T09:22:13;96616.38;;;25.31;66.04
9139;BME280;4604;48.616;9.548;2023-09-12T09:24:40;96612.28;;;25.46;66.35
9139;BME280;4604;48.616;9.548;2023-09-12T09:27:06;96615.28;;;25.61;66.67
9139;BME280;4604;48.616;9.548;2023-09-12T09:29:45;96613.56;;;25.72;66.41
9139;BME280;4604;48.616;9.548;2023-09-12T09:32:17;96618.22;;;25.88;65.46
9139;BME280;4604;48.616;9.548;2023-09-12T09:34:44;96611.69;;;26.01;65.67
9139;BME280;4604;48.616;9.548;2023-09-12T09:37:10;96608.22;;;26.22;65.11
9139;BME280;4604;48.616;9.548;2023-09-12T09:39:37;96603.22;;;26.31;65.61
9139;BME280;4604;48.616;9.548;2023-09-12T09:42:09;96596.91;;;26.25;66.86
9139;BME280;4604;48.616;9.548;2023-09-12T09:44:38;96591.41;;;26.37;66.69
9139;BME280;4604;48.616;9.548;2023-09-12T09:47:04;96591.03;;;26.51;66.41
9139;BME280;4604;48.616;9.548;2023-09-12T09:49:31;96583.69;;;26.63;65.84
9139;BME280;4604;48.616;9.548;2023-09-12T09:52:03;96583.16;;;26.83;64.95
9139;BME280;4604;48.616;9.548;2023-09-12T09:54:29;96585.03;;;27.04;62.68
9139;BME280;4604;48.616;9.548;2023-09-12T09:56:57;96576.44;;;27.13;62.46
9139;BME280;4604;48.616;9.548;2023-09-12T09:59:24;96578.84;;;27.31;62.42
9139;BME280;4604;48.616;9.548;2023-09-12T10:01:55;96581.22;;;27.49;60.50
9139;BME280;4604;48.616;9.548;2023-09-12T10:04:23;96583.44;;;27.58;60.83
9139;BME280;4604;48.616;9.548;2023-09-12T10:06:49;96579.81;;;27.74;59.74
9139;BME280;4604;48.616;9.548;2023-09-12T10:09:16;96573.19;;;27.87;59.24
9139;BME280;4604;48.616;9.548;2023-09-12T10:11:47;96570.69;;;28.12;56.40
9139;BME280;4604;48.616;9.548;2023-09-12T10:14:17;96573.81;;;27.99;57.35
9139;BME280;4604;48.616;9.548;2023-09-12T10:16:46;96574.34;;;27.96;57.67
9139;BME280;4604;48.616;9.548;2023-09-12T10:19:16;96576.50;;;27.94;57.05
9139;BME280;4604;48.616;9.548;2023-09-12T10:21:48;96569.63;;;28.18;56.67
9139;BME280;4604;48.616;9.548;2023-09-12T10:24:15;96576.19;;;28.23;57.35
9139;BME280;4604;48.616;9.548;2023-09-12T10:26:43;96558.81;;;28.24;56.31
9139;BME280;4604;48.616;9.548;2023-09-12T10:29:12;96565.66;;;28.31;54.68
9139;BME280;4604;48.616;9.548;2023-09-12T10:31:39;96562.72;;;28.43;54.77
9139;BME280;4604;48.616;9.548;2023-09-12T10:34:06;96562.84;;;28.53;54.08
9139;BME280;4604;48.616;9.548;2023-09-12T10:36:36;96555.16;;;28.45;53.25
9139;BME280;4604;48.616;9.548;2023-09-12T10:39:06;96553.91;;;28.58;53.90
9139;BME280;4604;48.616;9.548;2023-09-12T10:41:33;96548.22;;;28.65;52.04
9139;BME280;4604;48.616;9.548;2023-09-12T10:44:02;96545.81;;;28.73;51.54
9139;BME280;4604;48.616;9.548;2023-09-12T10:46:35;96554.28;;;28.82;52.38
9139;BME280;4604;48.616;9.548;2023-09-12T10:49:03;96558.06;;;28.81;51.60
9139;BME280;4604;48.616;9.548;2023-09-12T10:51:32;96555.69;;;28.90;51.42
9139;BME280;4604;48.616;9.548;2023-09-12T10:54:00;96556.31;;;29.07;50.62
9139;BME280;4604;48.616;9.548;2023-09-12T10:56:26;96567.41;;;29.00;50.30
9139;BME280;4604;48.616;9.548;2023-09-12T10:59:10;96563.94;;;29.10;50.51
9139;BME280;4604;48.616;9.548;2023-09-12T11:01:38;96559.34;;;29.21;48.75
9139;BME280;4604;48.616;9.548;2023-09-12T11:10:19;96562.34;;;29.25;48.04
9139;BME280;4604;48.616;9.548;2023-09-12T11:12:48;96566.72;;;29.36;48.18
9139;BME280;4604;48.616;9.548;2023-09-12T11:15:15;96552.06;;;29.47;46.64
9139;BME280;4604;48.616;9.548;2023-09-12T11:17:43;96564.00;;;29.36;46.35
9139;BME280;4604;48.616;9.548;2023-09-12T11:20:10;96563.16;;;29.20;45.78
9139;BME280;4604;48.616;9.548;2023-09-12T11:22:38;96559.34;;;29.26;46.34
9139;BME280;4604;48.616;9.548;2023-09-12T11:25:16;96557.25;;;29.54;45.80
9139;BME280;4604;48.616;9.548;2023-09-12T11:28:02;96554.22;;;29.45;44.30
9139;BME280;4604;48.616;9.548;2023-09-12T11:30:29;96543.34;;;29.45;43.15
9139;BME280;4604;48.616;9.548;2023-09-12T11:32:57;96545.81;;;29.57;44.14
9139;BME280;4604;48.616;9.548;2023-09-12T11:35:26;96547.50;;;29.78;44.74
9139;BME280;4604;48.616;9.548;2023-09-12T11:37:54;96533.63;;;29.95;43.02
9139;BME280;4604;48.616;9.548;2023-09-12T11:40:23;96534.16;;;29.82;42.49
9139;BME280;4604;48.616;9.548;2023-09-12T11:42:52;96542.63;;;29.80;43.39
9139;BME280;4604;48.616;9.548;2023-09-12T11:45:20;96531.44;;;29.77;43.33
9139;BME280;4604;48.616;9.548;2023-09-12T11:47:47;96538.78;;;29.92;41.76
9139;BME280;4604;48.616;9.548;2023-09-12T11:50:28;96541.22;;;30.03;40.24
9139;BME280;4604;48.616;9.548;2023-09-12T11:53:02;96535.00;;;29.93;40.02
9139;BME280;4604;48.616;9.548;2023-09-12T11:55:31;96530.91;;;29.85;40.27
9139;BME280;4604;48.616;9.548;2023-09-12T11:57:59;96527.59;;;30.14;39.40
9139;BME280;4604;48.616;9.548;2023-09-12T12:00:27;96524.09;;;30.08;38.74
9139;BME280;4604;48.616;9.548;2023-09-12T12:02:54;96522.69;;;30.31;39.65
9139;BME280;4604;48.616;9.548;2023-09-12T12:05:21;96518.06;;;30.37;39.53
9139;BME280;4604;48.616;9.548;2023-09-12T12:07:48;96523.22;;;30.54;39.86
9139;BME280;4604;48.616;9.548;2023-09-12T12:10:16;96519.56;;;30.79;39.84
9139;BME280;4604;48.616;9.548;2023-09-12T12:12:43;96516.59;;;30.75;40.19
9139;BME280;4604;48.616;9.548;2023-09-12T12:15:12;96513.91;;;30.60;40.00
9139;BME280;4604;48.616;9.548;2023-09-12T12:17:40;96516.72;;;30.34;40.38
9139;BME280;4604;48.616;9.548;2023-09-12T12:20:08;96511.81;;;30.21;40.60
9139;BME280;4604;48.616;9.548;2023-09-12T12:22:35;96513.97;;;30.39;40.74
9139;BME280;4604;48.616;9.548;2023-09-12T12:25:05;96517.19;;;30.62;39.99
9139;BME280;4604;48.616;9.548;2023-09-12T12:27:32;96515.31;;;30.52;38.65
9139;BME280;4604;48.616;9.548;2023-09-12T12:30:01;96507.13;;;30.52;39.13
9139;BME280;4604;48.616;9.548;2023-09-12T12:32:29;96510.34;;;30.69;39.80
9139;BME280;4604;48.616;9.548;2023-09-12T12:34:55;96504.34;;;30.67;39.79
9139;BME280;4604;48.616;9.548;2023-09-12T12:37:28;96505.94;;;30.84;40.20
9139;BME280;4604;48.616;9.548;2023-09-12T12:39:56;96502.06;;;31.00;39.35
9139;BME280;4604;48.616;9.548;2023-09-12T12:42:23;96492.59;;;30.77;40.82
9139;BME280;4604;48.616;9.548;2023-09-12T12:44:53;96489.09;;;30.66;39.75
9139;BME280;4604;48.616;9.548;2023-09-12T12:47:20;96494.53;;;30.71;40.48
9139;BME280;4604;48.616;9.548;2023-09-12T12:49:52;96488.53;;;30.85;41.07
9139;BME280;4604;48.616;9.548;2023-09-12T12:52:22;96482.38;;;31.08;41.27
9139;BME280;4604;48.616;9.548;2023-09-12T12:54:49;96486.41;;;31.16;41.25
9139;BME280;4604;48.616;9.548;2023-09-12T12:57:18;96486.31;;;31.37;39.76
9139;BME280;4604;48.616;9.548;2023-09-12T12:59:46;96485.25;;;31.27;39.11
9139;BME280;4604;48.616;9.548;2023-09-12T13:02:12;96480.69;;;31.18;39.40
9139;BME280;4604;48.616;9.548;2023-09-12T13:04:39;96476.34;;;31.11;39.56
9139;BME280;4604;48.616;9.548;2023-09-12T13:07:07;96480.66;;;31.23;38.94
9139;BME280;4604;48.616;9.548;2023-09-12T13:09:33;96476.75;;;30.89;38.53
9139;BME280;4604;48.616;9.548;2023-09-12T13:12:00;96474.91;;;30.85;38.36
9139;BME280;4604;48.616;9.548;2023-09-12T13:14:27;96466.19;;;30.78;38.23
9139;BME280;4604;48.616;9.548;2023-09-12T13:16:56;96466.47;;;30.71;38.59
9139;BME280;4604;48.616;9.548;2023-09-12T13:19:23;96465.69;;;30.65;38.13
9139;BME280;4604;48.616;9.548;2023-09-12T13:21:49;96461.31;;;30.64;38.75
9139;BME280;4604;48.616;9.548;2023-09-12T13:24:17;96456.94;;;30.68;39.31
9139;BME280;4604;48.616;9.548;2023-09-12T13:26:44;96455.88;;;30.64;39.65